sensor_id;sensor_type;location;lat;lon;timestamp;P1;durP1;ratioP1;P2;durP2;ratioP2
1402;SDS011;696;48.546;9.896;2023-05-10T00:00:38;5.05;;;4.20;;
1402;SDS011;696;48.546;9.896;2023-05-10T00:03:03;4.88;;;3.97;;
1402;SDS011;696;48.546;9.896;2023-05-10T00:05:29;4.88;;;3.53;;
1402;SDS011;696;48.546;9.896;2023-05-10T00:07:55;7.15;;;3.40;;
1402;SDS011;696;48.546;9.896;2023-05-10T00:10:21;3.83;;;3.15;;
1402;SDS011;696;48.546;9.896;2023-05-10T00:12:46;3.17;;;2.78;;
1402;SDS011;696;48.546;9.896;2023-05-10T00:15:12;4.88;;;2.58;;
1402;SDS011;696;48.546;9.896;2023-05-10T00:17:37;3.30;;;2.72;;
1402;SDS011;696;48.546;9.896;2023-05-10T00:20:02;3.05;;;2.38;;
1402;SDS011;696;48.546;9.896;2023-05-10T00:22:29;3.83;;;2.22;;
1402;SDS011;696;48.546;9.896;2023-05-10T00:24:55;3.53;;;2.72;;
1402;SDS011;696;48.546;9.896;2023-05-10T00:27:20;3.67;;;2.35;;
1402;SDS011;696;48.546;9.896;2023-05-10T00:29:46;3.83;;;2.40;;
1402;SDS011;696;48.546;9.896;2023-05-10T00:32:11;3.13;;;1.98;;
1402;SDS011;696;48.546;9.896;2023-05-10T00:34:38;3.47;;;1.52;;
1402;SDS011;696;48.546;9.896;2023-05-10T00:37:04;3.63;;;1.35;;
1402;SDS011;696;48.546;9.896;2023-05-10T00:39:29;1.48;;;1.30;;
1402;SDS011;696;48.546;9.896;2023-05-10T00:41:55;3.20;;;1.77;;
1402;SDS011;696;48.546;9.896;2023-05-10T00:44:20;1.98;;;1.10;;
1402;SDS011;696;48.546;9.896;2023-05-10T00:46:46;1.95;;;1.30;;
1402;SDS011;696;48.546;9.896;2023-05-10T00:49:12;2.38;;;1.10;;
1402;SDS011;696;48.546;9.896;2023-05-10T00:51:37;3.00;;;1.20;;
1402;SDS011;696;48.546;9.896;2023-05-10T00:54:02;1.17;;;1.08;;
1402;SDS011;696;48.546;9.896;2023-05-10T00:56:28;1.15;;;1.05;;
1402;SDS011;696;48.546;9.896;2023-05-10T00:58:54;0.80;;;0.80;;
1402;SDS011;696;48.546;9.896;2023-05-10T01:01:20;0.85;;;0.85;;
1402;SDS011;696;48.546;9.896;2023-05-10T01:03:46;1.25;;;1.00;;
1402;SDS011;696;48.546;9.896;2023-05-10T01:06:12;0.73;;;0.73;;
1402;SDS011;696;48.546;9.896;2023-05-10T01:08:37;0.80;;;0.70;;
1402;SDS011;696;48.546;9.896;2023-05-10T01:11:03;0.70;;;0.70;;
1402;SDS011;696;48.546;9.896;2023-05-10T01:13:38;0.88;;;0.77;;
1402;SDS011;696;48.546;9.896;2023-05-10T01:16:06;0.70;;;0.70;;
1402;SDS011;696;48.546;9.896;2023-05-10T01:18:37;0.70;;;0.70;;
1402;SDS011;696;48.546;9.896;2023-05-10T01:35:19;0.43;;;0.43;;
1402;SDS011;696;48.546;9.896;2023-05-10T01:40:29;0.50;;;0.47;;
1402;SDS011;696;48.546;9.896;2023-05-10T01:43:08;1.95;;;0.55;;
1402;SDS011;696;48.546;9.896;2023-05-10T01:48:11;0.50;;;0.50;;
1402;SDS011;696;48.546;9.896;2023-05-10T01:50:37;0.40;;;0.40;;
1402;SDS011;696;48.546;9.896;2023-05-10T01:53:08;2.72;;;0.50;;
1402;SDS011;696;48.546;9.896;2023-05-10T01:55:39;0.35;;;0.30;;
1402;SDS011;696;48.546;9.896;2023-05-10T01:58:15;1.08;;;0.35;;
1402;SDS011;696;48.546;9.896;2023-05-10T02:00:44;0.20;;;0.20;;
1402;SDS011;696;48.546;9.896;2023-05-10T02:03:10;0.30;;;0.30;;
1402;SDS011;696;48.546;9.896;2023-05-10T02:05:37;1.25;;;0.40;;
1402;SDS011;696;48.546;9.896;2023-05-10T02:08:05;0.45;;;0.45;;
1402;SDS011;696;48.546;9.896;2023-05-10T02:10:31;0.40;;;0.40;;
1402;SDS011;696;48.546;9.896;2023-05-10T02:12:58;0.30;;;0.30;;
1402;SDS011;696;48.546;9.896;2023-05-10T02:15:25;0.95;;;0.30;;
1402;SDS011;696;48.546;9.896;2023-05-10T02:17:52;0.22;;;0.22;;
1402;SDS011;696;48.546;9.896;2023-05-10T02:20:19;6.68;;;0.47;;
1402;SDS011;696;48.546;9.896;2023-05-10T02:22:45;0.28;;;0.28;;
1402;SDS011;696;48.546;9.896;2023-05-10T02:25:12;0.20;;;0.20;;
1402;SDS011;696;48.546;9.896;2023-05-10T02:27:38;1.52;;;0.32;;
1402;SDS011;696;48.546;9.896;2023-05-10T02:30:05;0.20;;;0.20;;
1402;SDS011;696;48.546;9.896;2023-05-10T02:32:32;0.40;;;0.40;;
1402;SDS011;696;48.546;9.896;2023-05-10T02:34:58;3.92;;;0.43;;
1402;SDS011;696;48.546;9.896;2023-05-10T02:37:25;0.50;;;0.50;;
1402;SDS011;696;48.546;9.896;2023-05-10T02:39:50;0.40;;;0.40;;
1402;SDS011;696;48.546;9.896;2023-05-10T02:42:18;3.42;;;0.40;;
1402;SDS011;696;48.546;9.896;2023-05-10T02:44:48;0.40;;;0.40;;
1402;SDS011;696;48.546;9.896;2023-05-10T02:47:14;0.20;;;0.20;;
1402;SDS011;696;48.546;9.896;2023-05-10T02:49:39;2.40;;;0.50;;
1402;SDS011;696;48.546;9.896;2023-05-10T02:52:05;0.30;;;0.30;;
1402;SDS011;696;48.546;9.896;2023-05-10T02:54:37;0.30;;;0.30;;
1402;SDS011;696;48.546;9.896;2023-05-10T02:57:06;0.40;;;0.40;;
1402;SDS011;696;48.546;9.896;2023-05-10T02:59:32;2.85;;;0.68;;
1402;SDS011;696;48.546;9.896;2023-05-10T03:01:58;0.30;;;0.30;;
1402;SDS011;696;48.546;9.896;2023-05-10T03:04:25;0.95;;;0.50;;
1402;SDS011;696;48.546;9.896;2023-05-10T03:06:50;0.93;;;0.55;;
1402;SDS011;696;48.546;9.896;2023-05-10T03:09:15;0.43;;;0.43;;
1402;SDS011;696;48.546;9.896;2023-05-10T03:14:39;0.50;;;0.50;;
1402;SDS011;696;48.546;9.896;2023-05-10T03:19:56;0.47;;;0.40;;
1402;SDS011;696;48.546;9.896;2023-05-10T03:22:27;0.30;;;0.30;;
1402;SDS011;696;48.546;9.896;2023-05-10T03:24:58;0.40;;;0.40;;
1402;SDS011;696;48.546;9.896;2023-05-10T03:27:26;0.50;;;0.50;;
1402;SDS011;696;48.546;9.896;2023-05-10T03:29:53;1.10;;;0.70;;
1402;SDS011;696;48.546;9.896;2023-05-10T03:32:19;1.10;;;0.60;;
1402;SDS011;696;48.546;9.896;2023-05-10T03:34:45;0.68;;;0.60;;
1402;SDS011;696;48.546;9.896;2023-05-10T03:37:10;0.52;;;0.50;;
1402;SDS011;696;48.546;9.896;2023-05-10T03:39:36;2.08;;;0.90;;
1402;SDS011;696;48.546;9.896;2023-05-10T03:42:01;3.72;;;0.65;;
1402;SDS011;696;48.546;9.896;2023-05-10T03:44:27;0.60;;;0.60;;
1402;SDS011;696;48.546;9.896;2023-05-10T03:46:52;0.85;;;0.70;;
1402;SDS011;696;48.546;9.896;2023-05-10T03:49:17;0.63;;;0.63;;
1402;SDS011;696;48.546;9.896;2023-05-10T03:51:43;0.80;;;0.80;;
1402;SDS011;696;48.546;9.896;2023-05-10T03:54:08;0.82;;;0.80;;
1402;SDS011;696;48.546;9.896;2023-05-10T03:56:33;0.80;;;0.65;;
1402;SDS011;696;48.546;9.896;2023-05-10T03:58:59;0.63;;;0.60;;
1402;SDS011;696;48.546;9.896;2023-05-10T04:01:24;1.15;;;0.75;;
1402;SDS011;696;48.546;9.896;2023-05-10T04:03:50;1.05;;;0.70;;
1402;SDS011;696;48.546;9.896;2023-05-10T04:06:15;2.47;;;1.10;;
1402;SDS011;696;48.546;9.896;2023-05-10T04:08:40;0.73;;;0.70;;
1402;SDS011;696;48.546;9.896;2023-05-10T04:11:09;2.47;;;0.80;;
1402;SDS011;696;48.546;9.896;2023-05-10T04:13:36;1.40;;;0.75;;
1402;SDS011;696;48.546;9.896;2023-05-10T04:16:01;0.98;;;0.80;;
1402;SDS011;696;48.546;9.896;2023-05-10T04:18:27;1.10;;;0.90;;
1402;SDS011;696;48.546;9.896;2023-05-10T04:20:52;1.13;;;0.88;;
1402;SDS011;696;48.546;9.896;2023-05-10T04:23:18;1.25;;;0.90;;
1402;SDS011;696;48.546;9.896;2023-05-10T04:25:45;1.00;;;0.90;;
1402;SDS011;696;48.546;9.896;2023-05-10T04:28:10;2.80;;;1.10;;
1402;SDS011;696;48.546;9.896;2023-05-10T04:30:36;0.85;;;0.82;;
1402;SDS011;696;48.546;9.896;2023-05-10T04:33:01;1.70;;;0.88;;
1402;SDS011;696;48.546;9.896;2023-05-10T04:35:27;1.42;;;1.00;;
1402;SDS011;696;48.546;9.896;2023-05-10T04:37:53;0.95;;;0.80;;
1402;SDS011;696;48.546;9.896;2023-05-10T04:40:18;1.15;;;0.80;;
1402;SDS011;696;48.546;9.896;2023-05-10T04:42:44;2.40;;;1.02;;
1402;SDS011;696;48.546;9.896;2023-05-10T04:45:10;0.88;;;0.88;;
1402;SDS011;696;48.546;9.896;2023-05-10T04:47:35;1.45;;;0.93;;
1402;SDS011;696;48.546;9.896;2023-05-10T04:50:02;0.68;;;0.68;;
1402;SDS011;696;48.546;9.896;2023-05-10T04:52:28;0.70;;;0.70;;
1402;SDS011;696;48.546;9.896;2023-05-10T04:54:53;2.72;;;0.85;;
1402;SDS011;696;48.546;9.896;2023-05-10T04:57:19;0.80;;;0.80;;
1402;SDS011;696;48.546;9.896;2023-05-10T04:59:44;1.55;;;0.88;;
1402;SDS011;696;48.546;9.896;2023-05-10T05:02:10;5.65;;;0.90;;
1402;SDS011;696;48.546;9.896;2023-05-10T05:04:36;0.85;;;0.85;;
1402;SDS011;696;48.546;9.896;2023-05-10T05:07:01;0.98;;;0.75;;
1402;SDS011;696;48.546;9.896;2023-05-10T05:09:27;0.80;;;0.68;;
1402;SDS011;696;48.546;9.896;2023-05-10T05:11:52;0.80;;;0.70;;
1402;SDS011;696;48.546;9.896;2023-05-10T05:14:18;0.93;;;0.80;;
1402;SDS011;696;48.546;9.896;2023-05-10T05:16:45;1.27;;;0.80;;
1402;SDS011;696;48.546;9.896;2023-05-10T05:19:11;1.50;;;0.77;;
1402;SDS011;696;48.546;9.896;2023-05-10T05:21:36;0.70;;;0.68;;
1402;SDS011;696;48.546;9.896;2023-05-10T05:24:01;0.50;;;0.50;;
1402;SDS011;696;48.546;9.896;2023-05-10T05:26:27;0.55;;;0.52;;
1402;SDS011;696;48.546;9.896;2023-05-10T05:28:52;0.52;;;0.52;;
1402;SDS011;696;48.546;9.896;2023-05-10T05:31:19;0.90;;;0.70;;
1402;SDS011;696;48.546;9.896;2023-05-10T05:33:46;0.50;;;0.50;;
1402;SDS011;696;48.546;9.896;2023-05-10T05:36:13;0.70;;;0.50;;
1402;SDS011;696;48.546;9.896;2023-05-10T05:38:38;0.50;;;0.50;;
1402;SDS011;696;48.546;9.896;2023-05-10T05:41:04;0.55;;;0.55;;
1402;SDS011;696;48.546;9.896;2023-05-10T05:43:29;0.95;;;0.80;;
1402;SDS011;696;48.546;9.896;2023-05-10T05:45:55;0.65;;;0.60;;
1402;SDS011;696;48.546;9.896;2023-05-10T05:48:22;9.88;;;4.80;;
1402;SDS011;696;48.546;9.896;2023-05-10T05:50:48;6.25;;;1.98;;
1402;SDS011;696;48.546;9.896;2023-05-10T05:53:13;1.58;;;1.08;;
1402;SDS011;696;48.546;9.896;2023-05-10T05:55:39;1.02;;;0.80;;
1402;SDS011;696;48.546;9.896;2023-05-10T05:58:04;0.82;;;0.68;;
1402;SDS011;696;48.546;9.896;2023-05-10T06:00:29;0.40;;;0.40;;
1402;SDS011;696;48.546;9.896;2023-05-10T06:02:55;0.60;;;0.60;;
1402;SDS011;696;48.546;9.896;2023-05-10T06:05:20;0.80;;;0.45;;
1402;SDS011;696;48.546;9.896;2023-05-10T06:07:48;0.75;;;0.40;;
1402;SDS011;696;48.546;9.896;2023-05-10T06:10:17;0.82;;;0.70;;
1402;SDS011;696;48.546;9.896;2023-05-10T06:12:42;0.95;;;0.63;;
1402;SDS011;696;48.546;9.896;2023-05-10T06:15:08;0.38;;;0.38;;
1402;SDS011;696;48.546;9.896;2023-05-10T06:17:34;0.40;;;0.40;;
1402;SDS011;696;48.546;9.896;2023-05-10T06:19:59;0.43;;;0.43;;
1402;SDS011;696;48.546;9.896;2023-05-10T06:22:25;0.40;;;0.40;;
1402;SDS011;696;48.546;9.896;2023-05-10T06:24:50;0.95;;;0.52;;
1402;SDS011;696;48.546;9.896;2023-05-10T06:27:15;0.73;;;0.40;;
1402;SDS011;696;48.546;9.896;2023-05-10T06:29:41;0.80;;;0.50;;
1402;SDS011;696;48.546;9.896;2023-05-10T06:32:06;0.32;;;0.32;;
1402;SDS011;696;48.546;9.896;2023-05-10T06:34:32;1.95;;;0.50;;
1402;SDS011;696;48.546;9.896;2023-05-10T06:36:57;1.17;;;0.60;;
1402;SDS011;696;48.546;9.896;2023-05-10T06:39:22;0.40;;;0.40;;
1402;SDS011;696;48.546;9.896;2023-05-10T06:41:48;0.52;;;0.52;;
1402;SDS011;696;48.546;9.896;2023-05-10T06:44:13;0.40;;;0.40;;
1402;SDS011;696;48.546;9.896;2023-05-10T06:46:38;0.70;;;0.70;;
1402;SDS011;696;48.546;9.896;2023-05-10T06:49:04;0.47;;;0.47;;
1402;SDS011;696;48.546;9.896;2023-05-10T06:51:29;0.65;;;0.60;;
1402;SDS011;696;48.546;9.896;2023-05-10T06:53:55;0.68;;;0.68;;
1402;SDS011;696;48.546;9.896;2023-05-10T06:56:21;0.38;;;0.38;;
1402;SDS011;696;48.546;9.896;2023-05-10T06:58:47;0.60;;;0.60;;
1402;SDS011;696;48.546;9.896;2023-05-10T07:01:12;0.52;;;0.52;;
1402;SDS011;696;48.546;9.896;2023-05-10T07:03:38;0.60;;;0.60;;
1402;SDS011;696;48.546;9.896;2023-05-10T07:06:03;0.63;;;0.57;;
1402;SDS011;696;48.546;9.896;2023-05-10T07:08:35;1.83;;;0.70;;
1402;SDS011;696;48.546;9.896;2023-05-10T07:11:03;0.80;;;0.80;;
1402;SDS011;696;48.546;9.896;2023-05-10T07:13:30;0.82;;;0.80;;
1402;SDS011;696;48.546;9.896;2023-05-10T07:15:56;2.42;;;0.82;;
1402;SDS011;696;48.546;9.896;2023-05-10T07:18:22;1.02;;;0.80;;
1402;SDS011;696;48.546;9.896;2023-05-10T07:20:48;0.70;;;0.70;;
1402;SDS011;696;48.546;9.896;2023-05-10T07:23:13;1.52;;;0.70;;
1402;SDS011;696;48.546;9.896;2023-05-10T07:25:38;0.65;;;0.63;;
1402;SDS011;696;48.546;9.896;2023-05-10T07:28:04;0.47;;;0.47;;
1402;SDS011;696;48.546;9.896;2023-05-10T07:30:29;0.68;;;0.68;;
1402;SDS011;696;48.546;9.896;2023-05-10T07:32:55;1.00;;;0.80;;
1402;SDS011;696;48.546;9.896;2023-05-10T07:35:20;1.30;;;0.65;;
1402;SDS011;696;48.546;9.896;2023-05-10T07:37:46;0.40;;;0.40;;
1402;SDS011;696;48.546;9.896;2023-05-10T07:40:11;0.93;;;0.90;;
1402;SDS011;696;48.546;9.896;2023-05-10T07:42:36;0.80;;;0.80;;
1402;SDS011;696;48.546;9.896;2023-05-10T07:45:03;1.08;;;0.90;;
1402;SDS011;696;48.546;9.896;2023-05-10T07:47:28;0.63;;;0.60;;
1402;SDS011;696;48.546;9.896;2023-05-10T07:49:54;1.42;;;0.90;;
1402;SDS011;696;48.546;9.896;2023-05-10T07:52:19;0.50;;;0.50;;
1402;SDS011;696;48.546;9.896;2023-05-10T07:54:45;1.42;;;0.85;;
1402;SDS011;696;48.546;9.896;2023-05-10T07:57:10;0.90;;;0.90;;
1402;SDS011;696;48.546;9.896;2023-05-10T07:59:36;0.75;;;0.75;;
1402;SDS011;696;48.546;9.896;2023-05-10T08:02:01;1.50;;;0.90;;
1402;SDS011;696;48.546;9.896;2023-05-10T08:04:27;2.10;;;0.70;;
1402;SDS011;696;48.546;9.896;2023-05-10T08:06:52;0.65;;;0.65;;
1402;SDS011;696;48.546;9.896;2023-05-10T08:09:17;2.10;;;0.88;;
1402;SDS011;696;48.546;9.896;2023-05-10T08:11:46;1.67;;;0.75;;
1402;SDS011;696;48.546;9.896;2023-05-10T08:14:11;1.70;;;0.93;;
1402;SDS011;696;48.546;9.896;2023-05-10T08:16:37;1.40;;;1.30;;
1402;SDS011;696;48.546;9.896;2023-05-10T08:19:02;0.85;;;0.85;;
1402;SDS011;696;48.546;9.896;2023-05-10T08:21:28;0.95;;;0.77;;
1402;SDS011;696;48.546;9.896;2023-05-10T08:23:53;4.63;;;2.10;;
1402;SDS011;696;48.546;9.896;2023-05-10T08:26:18;6.10;;;2.33;;
1402;SDS011;696;48.546;9.896;2023-05-10T08:28:44;2.33;;;1.50;;
1402;SDS011;696;48.546;9.896;2023-05-10T08:31:09;2.17;;;1.05;;
1402;SDS011;696;48.546;9.896;2023-05-10T08:33:34;2.03;;;1.27;;
1402;SDS011;696;48.546;9.896;2023-05-10T08:36:00;0.77;;;0.75;;
1402;SDS011;696;48.546;9.896;2023-05-10T08:38:26;1.10;;;0.77;;
1402;SDS011;696;48.546;9.896;2023-05-10T08:40:52;0.82;;;0.82;;
1402;SDS011;696;48.546;9.896;2023-05-10T08:43:21;0.90;;;0.75;;
1402;SDS011;696;48.546;9.896;2023-05-10T08:45:46;1.05;;;0.70;;
1402;SDS011;696;48.546;9.896;2023-05-10T08:48:14;1.00;;;0.63;;
1402;SDS011;696;48.546;9.896;2023-05-10T08:50:40;1.45;;;0.75;;
1402;SDS011;696;48.546;9.896;2023-05-10T08:53:09;3.45;;;0.57;;
1402;SDS011;696;48.546;9.896;2023-05-10T08:55:36;0.95;;;0.60;;
1402;SDS011;696;48.546;9.896;2023-05-10T08:58:03;0.75;;;0.63;;
1402;SDS011;696;48.546;9.896;2023-05-10T09:00:32;0.85;;;0.47;;
1402;SDS011;696;48.546;9.896;2023-05-10T09:02:58;0.60;;;0.50;;
1402;SDS011;696;48.546;9.896;2023-05-10T09:05:24;6.47;;;0.60;;
1402;SDS011;696;48.546;9.896;2023-05-10T09:07:50;0.32;;;0.32;;
1402;SDS011;696;48.546;9.896;2023-05-10T09:10:15;3.20;;;0.50;;
1402;SDS011;696;48.546;9.896;2023-05-10T09:12:40;0.63;;;0.40;;
1402;SDS011;696;48.546;9.896;2023-05-10T09:15:07;0.40;;;0.40;;
1402;SDS011;696;48.546;9.896;2023-05-10T09:17:32;3.05;;;0.40;;
1402;SDS011;696;48.546;9.896;2023-05-10T09:19:59;0.30;;;0.30;;
1402;SDS011;696;48.546;9.896;2023-05-10T09:22:24;0.40;;;0.40;;
1402;SDS011;696;48.546;9.896;2023-05-10T09:27:31;0.47;;;0.38;;
1402;SDS011;696;48.546;9.896;2023-05-10T09:29:56;0.60;;;0.20;;
1402;SDS011;696;48.546;9.896;2023-05-10T09:32:22;3.63;;;0.30;;
1402;SDS011;696;48.546;9.896;2023-05-10T09:37:39;0.68;;;0.50;;
1402;SDS011;696;48.546;9.896;2023-05-10T09:40:06;0.60;;;0.60;;
1402;SDS011;696;48.546;9.896;2023-05-10T09:42:33;0.50;;;0.50;;
1402;SDS011;696;48.546;9.896;2023-05-10T09:45:00;0.50;;;0.50;;
1402;SDS011;696;48.546;9.896;2023-05-10T09:47:29;1.67;;;0.75;;
1402;SDS011;696;48.546;9.896;2023-05-10T09:49:57;1.13;;;0.68;;
1402;SDS011;696;48.546;9.896;2023-05-10T09:52:27;0.52;;;0.38;;
1402;SDS011;696;48.546;9.896;2023-05-10T09:54:53;0.30;;;0.30;;
1402;SDS011;696;48.546;9.896;2023-05-10T09:57:22;0.25;;;0.25;;
1402;SDS011;696;48.546;9.896;2023-05-10T09:59:48;0.93;;;0.63;;
1402;SDS011;696;48.546;9.896;2023-05-10T10:02:15;0.43;;;0.43;;
1402;SDS011;696;48.546;9.896;2023-05-10T10:04:41;0.70;;;0.40;;
1402;SDS011;696;48.546;9.896;2023-05-10T10:07:07;1.17;;;0.98;;
1402;SDS011;696;48.546;9.896;2023-05-10T10:09:33;1.05;;;0.68;;
1402;SDS011;696;48.546;9.896;2023-05-10T10:12:02;0.57;;;0.40;;
1402;SDS011;696;48.546;9.896;2023-05-10T10:14:29;1.17;;;0.50;;
1402;SDS011;696;48.546;9.896;2023-05-10T10:16:55;0.30;;;0.30;;
1402;SDS011;696;48.546;9.896;2023-05-10T10:19:21;0.20;;;0.20;;
1402;SDS011;696;48.546;9.896;2023-05-10T10:21:47;0.30;;;0.30;;
1402;SDS011;696;48.546;9.896;2023-05-10T10:24:12;0.60;;;0.40;;
1402;SDS011;696;48.546;9.896;2023-05-10T10:26:38;4.75;;;0.40;;
1402;SDS011;696;48.546;9.896;2023-05-10T10:29:14;0.60;;;0.45;;
1402;SDS011;696;48.546;9.896;2023-05-10T10:32:03;0.52;;;0.40;;
1402;SDS011;696;48.546;9.896;2023-05-10T10:34:52;0.80;;;0.40;;
1402;SDS011;696;48.546;9.896;2023-05-10T10:37:19;0.40;;;0.40;;
1402;SDS011;696;48.546;9.896;2023-05-10T10:39:44;0.45;;;0.45;;
1402;SDS011;696;48.546;9.896;2023-05-10T10:42:09;0.57;;;0.52;;
1402;SDS011;696;48.546;9.896;2023-05-10T10:44:38;0.30;;;0.30;;
1402;SDS011;696;48.546;9.896;2023-05-10T10:52:46;0.30;;;0.30;;
1402;SDS011;696;48.546;9.896;2023-05-10T11:02:46;0.30;;;0.30;;
1402;SDS011;696;48.546;9.896;2023-05-10T11:07:55;0.30;;;0.30;;
1402;SDS011;696;48.546;9.896;2023-05-10T11:10:22;0.40;;;0.40;;
1402;SDS011;696;48.546;9.896;2023-05-10T11:13:05;0.30;;;0.30;;
1402;SDS011;696;48.546;9.896;2023-05-10T11:15:38;0.52;;;0.38;;
1402;SDS011;696;48.546;9.896;2023-05-10T11:20:52;0.30;;;0.30;;
1402;SDS011;696;48.546;9.896;2023-05-10T11:23:20;0.40;;;0.40;;
1402;SDS011;696;48.546;9.896;2023-05-10T11:25:47;0.20;;;0.20;;
1402;SDS011;696;48.546;9.896;2023-05-10T11:28:13;0.85;;;0.50;;
1402;SDS011;696;48.546;9.896;2023-05-10T11:30:39;1.17;;;0.20;;
1402;SDS011;696;48.546;9.896;2023-05-10T11:33:06;0.63;;;0.60;;
1402;SDS011;696;48.546;9.896;2023-05-10T11:35:36;0.40;;;0.40;;
1402;SDS011;696;48.546;9.896;2023-05-10T11:38:04;1.38;;;1.00;;
1402;SDS011;696;48.546;9.896;2023-05-10T11:40:30;1.02;;;0.90;;
1402;SDS011;696;48.546;9.896;2023-05-10T11:42:56;1.75;;;0.90;;
1402;SDS011;696;48.546;9.896;2023-05-10T11:45:23;0.57;;;0.47;;
1402;SDS011;696;48.546;9.896;2023-05-10T11:47:49;1.05;;;0.77;;
1402;SDS011;696;48.546;9.896;2023-05-10T11:50:15;1.95;;;0.52;;
1402;SDS011;696;48.546;9.896;2023-05-10T11:52:40;0.55;;;0.50;;
1402;SDS011;696;48.546;9.896;2023-05-10T11:55:06;0.55;;;0.55;;
1402;SDS011;696;48.546;9.896;2023-05-10T11:57:31;1.00;;;0.70;;
1402;SDS011;696;48.546;9.896;2023-05-10T11:59:57;1.27;;;0.47;;
1402;SDS011;696;48.546;9.896;2023-05-10T12:02:22;0.90;;;0.70;;
1402;SDS011;696;48.546;9.896;2023-05-10T12:04:48;3.78;;;0.65;;
1402;SDS011;696;48.546;9.896;2023-05-10T12:07:15;0.25;;;0.25;;
1402;SDS011;696;48.546;9.896;2023-05-10T12:09:44;2.83;;;0.50;;
1402;SDS011;696;48.546;9.896;2023-05-10T12:12:10;0.50;;;0.50;;
1402;SDS011;696;48.546;9.896;2023-05-10T12:14:41;0.60;;;0.50;;
1402;SDS011;696;48.546;9.896;2023-05-10T12:17:06;2.47;;;0.50;;
1402;SDS011;696;48.546;9.896;2023-05-10T12:19:37;0.40;;;0.40;;
1402;SDS011;696;48.546;9.896;2023-05-10T12:22:04;0.47;;;0.47;;
1402;SDS011;696;48.546;9.896;2023-05-10T12:24:30;6.53;;;0.50;;
1402;SDS011;696;48.546;9.896;2023-05-10T12:26:55;0.43;;;0.43;;
1402;SDS011;696;48.546;9.896;2023-05-10T12:29:21;0.68;;;0.68;;
1402;SDS011;696;48.546;9.896;2023-05-10T12:31:54;3.42;;;0.60;;
1402;SDS011;696;48.546;9.896;2023-05-10T12:34:29;0.50;;;0.50;;
1402;SDS011;696;48.546;9.896;2023-05-10T12:36:56;0.40;;;0.40;;
1402;SDS011;696;48.546;9.896;2023-05-10T12:39:21;0.45;;;0.40;;
1402;SDS011;696;48.546;9.896;2023-05-10T12:41:46;0.70;;;0.57;;
1402;SDS011;696;48.546;9.896;2023-05-10T12:44:12;0.75;;;0.38;;
1402;SDS011;696;48.546;9.896;2023-05-10T12:46:37;0.60;;;0.60;;
1402;SDS011;696;48.546;9.896;2023-05-10T12:49:02;0.60;;;0.60;;
1402;SDS011;696;48.546;9.896;2023-05-10T12:51:28;0.68;;;0.50;;
1402;SDS011;696;48.546;9.896;2023-05-10T12:53:53;1.45;;;0.80;;
1402;SDS011;696;48.546;9.896;2023-05-10T12:56:19;1.08;;;0.55;;
1402;SDS011;696;48.546;9.896;2023-05-10T12:58:45;0.75;;;0.73;;
1402;SDS011;696;48.546;9.896;2023-05-10T13:01:14;1.30;;;0.90;;
1402;SDS011;696;48.546;9.896;2023-05-10T13:03:43;2.25;;;0.90;;
1402;SDS011;696;48.546;9.896;2023-05-10T13:06:08;1.17;;;0.70;;
1402;SDS011;696;48.546;9.896;2023-05-10T13:08:34;0.50;;;0.50;;
1402;SDS011;696;48.546;9.896;2023-05-10T13:11:00;1.60;;;0.70;;
1402;SDS011;696;48.546;9.896;2023-05-10T13:13:25;0.60;;;0.50;;
1402;SDS011;696;48.546;9.896;2023-05-10T13:15:51;0.73;;;0.70;;
1402;SDS011;696;48.546;9.896;2023-05-10T13:18:16;1.60;;;0.60;;
1402;SDS011;696;48.546;9.896;2023-05-10T13:20:42;0.47;;;0.47;;
1402;SDS011;696;48.546;9.896;2023-05-10T13:23:09;1.95;;;1.10;;
1402;SDS011;696;48.546;9.896;2023-05-10T13:25:34;3.78;;;2.35;;
1402;SDS011;696;48.546;9.896;2023-05-10T13:28:00;1.20;;;0.90;;
1402;SDS011;696;48.546;9.896;2023-05-10T13:30:25;1.58;;;1.00;;
1402;SDS011;696;48.546;9.896;2023-05-10T13:32:51;1.98;;;0.88;;
1402;SDS011;696;48.546;9.896;2023-05-10T13:35:16;3.22;;;1.00;;
1402;SDS011;696;48.546;9.896;2023-05-10T13:37:41;1.45;;;1.00;;
1402;SDS011;696;48.546;9.896;2023-05-10T13:40:07;3.33;;;0.90;;
1402;SDS011;696;48.546;9.896;2023-05-10T13:42:33;1.83;;;1.00;;
1402;SDS011;696;48.546;9.896;2023-05-10T13:44:58;3.00;;;1.05;;
1402;SDS011;696;48.546;9.896;2023-05-10T13:47:26;0.65;;;0.65;;
1402;SDS011;696;48.546;9.896;2023-05-10T13:49:52;1.60;;;0.90;;
1402;SDS011;696;48.546;9.896;2023-05-10T13:52:17;4.85;;;1.10;;
1402;SDS011;696;48.546;9.896;2023-05-10T13:54:43;4.57;;;1.08;;
1402;SDS011;696;48.546;9.896;2023-05-10T13:57:09;1.10;;;0.75;;
1402;SDS011;696;48.546;9.896;2023-05-10T13:59:36;1.25;;;0.80;;
1402;SDS011;696;48.546;9.896;2023-05-10T14:02:02;2.13;;;1.10;;
1402;SDS011;696;48.546;9.896;2023-05-10T14:04:28;1.15;;;0.70;;
1402;SDS011;696;48.546;9.896;2023-05-10T14:06:53;2.00;;;0.85;;
1402;SDS011;696;48.546;9.896;2023-05-10T14:09:19;3.10;;;1.00;;
1402;SDS011;696;48.546;9.896;2023-05-10T14:11:44;2.88;;;1.20;;
1402;SDS011;696;48.546;9.896;2023-05-10T14:14:10;2.58;;;0.93;;
1402;SDS011;696;48.546;9.896;2023-05-10T14:16:36;1.30;;;0.88;;
1402;SDS011;696;48.546;9.896;2023-05-10T14:19:01;2.92;;;1.00;;
1402;SDS011;696;48.546;9.896;2023-05-10T14:21:27;1.08;;;0.80;;
1402;SDS011;696;48.546;9.896;2023-05-10T14:23:54;0.73;;;0.70;;
1402;SDS011;696;48.546;9.896;2023-05-10T14:26:20;0.88;;;0.85;;
1402;SDS011;696;48.546;9.896;2023-05-10T14:28:46;1.15;;;0.82;;
1402;SDS011;696;48.546;9.896;2023-05-10T14:31:11;1.50;;;1.05;;
1402;SDS011;696;48.546;9.896;2023-05-10T14:33:37;0.70;;;0.70;;
1402;SDS011;696;48.546;9.896;2023-05-10T14:36:02;1.75;;;0.98;;
1402;SDS011;696;48.546;9.896;2023-05-10T14:38:28;2.60;;;0.95;;
1402;SDS011;696;48.546;9.896;2023-05-10T14:40:54;1.10;;;1.00;;
1402;SDS011;696;48.546;9.896;2023-05-10T14:43:20;1.67;;;0.90;;
1402;SDS011;696;48.546;9.896;2023-05-10T14:45:45;1.17;;;0.95;;
1402;SDS011;696;48.546;9.896;2023-05-10T14:48:11;2.45;;;0.90;;
1402;SDS011;696;48.546;9.896;2023-05-10T14:50:40;1.30;;;0.60;;
1402;SDS011;696;48.546;9.896;2023-05-10T14:53:05;1.95;;;1.25;;
1402;SDS011;696;48.546;9.896;2023-05-10T14:55:31;3.38;;;0.88;;
1402;SDS011;696;48.546;9.896;2023-05-10T14:57:57;3.50;;;1.40;;
1402;SDS011;696;48.546;9.896;2023-05-10T15:00:23;5.75;;;0.80;;
1402;SDS011;696;48.546;9.896;2023-05-10T15:02:48;2.03;;;0.98;;
1402;SDS011;696;48.546;9.896;2023-05-10T15:05:14;2.17;;;1.02;;
1402;SDS011;696;48.546;9.896;2023-05-10T15:07:39;6.15;;;0.90;;
1402;SDS011;696;48.546;9.896;2023-05-10T15:10:05;3.42;;;1.10;;
1402;SDS011;696;48.546;9.896;2023-05-10T15:12:31;3.08;;;0.98;;
1402;SDS011;696;48.546;9.896;2023-05-10T15:14:56;1.83;;;0.98;;
1402;SDS011;696;48.546;9.896;2023-05-10T15:17:22;0.77;;;0.77;;
1402;SDS011;696;48.546;9.896;2023-05-10T15:19:47;0.63;;;0.60;;
1402;SDS011;696;48.546;9.896;2023-05-10T15:22:14;2.75;;;0.95;;
1402;SDS011;696;48.546;9.896;2023-05-10T15:24:39;0.57;;;0.55;;
1402;SDS011;696;48.546;9.896;2023-05-10T15:27:05;1.40;;;0.80;;
1402;SDS011;696;48.546;9.896;2023-05-10T15:29:30;1.27;;;0.82;;
1402;SDS011;696;48.546;9.896;2023-05-10T15:31:56;10.45;;;0.88;;
1402;SDS011;696;48.546;9.896;2023-05-10T15:34:22;1.02;;;0.65;;
1402;SDS011;696;48.546;9.896;2023-05-10T15:36:47;3.05;;;1.15;;
1402;SDS011;696;48.546;9.896;2023-05-10T15:39:12;1.35;;;0.88;;
1402;SDS011;696;48.546;9.896;2023-05-10T15:41:38;0.85;;;0.80;;
1402;SDS011;696;48.546;9.896;2023-05-10T15:44:03;1.65;;;0.50;;
1402;SDS011;696;48.546;9.896;2023-05-10T15:46:29;1.90;;;1.05;;
1402;SDS011;696;48.546;9.896;2023-05-10T15:48:55;2.50;;;0.70;;
1402;SDS011;696;48.546;9.896;2023-05-10T15:51:21;1.38;;;0.80;;
1402;SDS011;696;48.546;9.896;2023-05-10T15:53:46;0.73;;;0.60;;
1402;SDS011;696;48.546;9.896;2023-05-10T15:56:12;0.90;;;0.68;;
1402;SDS011;696;48.546;9.896;2023-05-10T15:58:37;0.77;;;0.77;;
1402;SDS011;696;48.546;9.896;2023-05-10T16:01:03;2.33;;;1.15;;
1402;SDS011;696;48.546;9.896;2023-05-10T16:03:29;2.05;;;0.82;;
1402;SDS011;696;48.546;9.896;2023-05-10T16:05:55;0.88;;;0.63;;
1402;SDS011;696;48.546;9.896;2023-05-10T16:08:20;2.05;;;1.15;;
1402;SDS011;696;48.546;9.896;2023-05-10T16:10:46;4.60;;;1.10;;
1402;SDS011;696;48.546;9.896;2023-05-10T16:13:11;1.92;;;0.70;;